createdAt,value
2019-02-25T00:00:08.768Z,98823.58
2019-02-25T00:02:40.533Z,98823.55
2019-02-25T00:05:12.628Z,98817.58
2019-02-25T00:07:44.245Z,98819.72
2019-02-25T00:10:15.195Z,98817.66
2019-02-25T00:12:46.543Z,98807.42
2019-02-25T00:15:50.474Z,98806.02
2019-02-25T00:18:22.802Z,98813.69
2019-02-25T00:21:14.144Z,98824.71
2019-02-25T00:23:45.174Z,98826.48
2019-02-25T00:26:17.208Z,98824.33
2019-02-25T00:28:48.893Z,98806.78
2019-02-25T00:31:20.242Z,98806.45
2019-02-25T00:33:52.711Z,98808.40
2019-02-25T00:36:25.822Z,98805.61
2019-02-25T00:38:57.480Z,98803.16
2019-02-25T00:41:29.438Z,98799.34
2019-02-25T00:44:00.753Z,98800.81
2019-02-25T00:46:32.480Z,98802.35
2019-02-25T00:49:03.152Z,98792.61
2019-02-25T00:51:34.563Z,98790.05
2019-02-25T00:54:05.950Z,98786.03
2019-02-25T00:56:37.809Z,98787.42
2019-02-25T00:59:09.140Z,98783.46
2019-02-25T01:02:05.769Z,98782.34
2019-02-25T01:04:37.133Z,98780.33
2019-02-25T01:07:09.453Z,98772.50
2019-02-25T01:09:40.256Z,98777.33
2019-02-25T01:12:13.449Z,98771.91
2019-02-25T01:14:45.319Z,98765.93
2019-02-25T01:17:16.699Z,98778.08
2019-02-25T01:19:48.451Z,98773.11
2019-02-25T01:22:19.178Z,98775.34
2019-02-25T01:24:49.776Z,98761.27
2019-02-25T01:27:20.093Z,98759.94
2019-02-25T01:29:51.280Z,98756.52
2019-02-25T01:32:46.041Z,98760.84
2019-02-25T01:35:17.651Z,98752.93
2019-02-25T01:37:50.656Z,98745.06
2019-02-25T01:40:21.988Z,98741.70
2019-02-25T01:42:53.248Z,98750.37
2019-02-25T01:45:24.773Z,98750.84
2019-02-25T01:48:05.099Z,98743.90
2019-02-25T01:50:36.153Z,98743.14
2019-02-25T01:53:07.360Z,98738.66
2019-02-25T01:55:38.447Z,98738.55
2019-02-25T01:58:24.032Z,98743.20
2019-02-25T02:00:54.807Z,98739.19
2019-02-25T03:01:53.490Z,98729.42
2019-02-25T03:04:23.829Z,98734.29
2019-02-25T03:06:55.584Z,98727.09
2019-02-25T03:09:37.394Z,98730.66
2019-02-25T03:12:08.955Z,98723.24
2019-02-25T03:14:40.292Z,98724.20
2019-02-25T03:17:11.443Z,98722.88
2019-02-25T03:19:42.518Z,98735.27
2019-02-25T03:22:14.650Z,98735.16
2019-02-25T03:24:46.175Z,98743.02
2019-02-25T03:27:17.840Z,98743.22
2019-02-25T03:29:49.442Z,98750.22
2019-02-25T03:32:26.796Z,98743.11
2019-02-25T03:34:58.407Z,98750.75
2019-02-25T03:37:30.562Z,98748.03
2019-02-25T03:40:01.942Z,98750.81
2019-02-25T03:42:33.594Z,98744.60
2019-02-25T03:45:04.215Z,98748.78
2019-02-25T03:47:36.015Z,98744.91
2019-02-25T03:50:07.431Z,98742.97
2019-02-25T03:52:38.658Z,98741.45
2019-02-25T03:55:13.048Z,98753.36
2019-02-25T03:57:44.575Z,98752.30
2019-02-25T04:00:23.201Z,98752.33
2019-02-25T04:02:54.532Z,98755.34
2019-02-25T04:05:26.099Z,98755.39
2019-02-25T04:07:58.393Z,98760.48
2019-02-25T04:10:29.574Z,98759.05
2019-02-25T04:13:01.406Z,98759.27
2019-02-25T04:15:38.464Z,98759.63
2019-02-25T04:18:16.247Z,98765.41
2019-02-25T04:20:47.392Z,98764.98
2019-02-25T04:23:18.449Z,98755.88
2019-02-25T04:25:50.255Z,98759.80
2019-02-25T04:28:23.129Z,98760.41
2019-02-25T04:30:54.487Z,98759.98
2019-02-25T04:33:25.487Z,98760.09
2019-02-25T04:35:56.397Z,98765.40
2019-02-25T04:38:27.410Z,98767.30
2019-02-25T04:40:58.356Z,98765.11
2019-02-25T04:43:30.210Z,98763.91
2019-02-25T04:46:01.546Z,98764.77
2019-02-25T04:48:33.587Z,98764.30
2019-02-25T04:51:05.066Z,98765.69
2019-02-25T04:53:36.089Z,98767.89
2019-02-25T04:56:07.720Z,98765.11
2019-02-25T04:58:40.550Z,98762.69
2019-02-25T05:01:12.017Z,98760.75
2019-02-25T05:03:44.907Z,98763.33
2019-02-25T05:06:16.941Z,98762.45
2019-02-25T05:08:48.950Z,98763.20
2019-02-25T05:11:32.829Z,98758.14
2019-02-25T05:14:04.135Z,98760.73
2019-02-25T05:16:35.872Z,98759.80
2019-02-25T05:19:06.548Z,98759.03
2019-02-25T05:21:38.564Z,98761.45
2019-02-25T05:24:09.876Z,98759.88
2019-02-25T05:26:41.187Z,98752.41
2019-02-25T05:29:12.514Z,98757.20
2019-02-25T05:31:43.787Z,98756.44
2019-02-25T05:34:15.508Z,98759.20
2019-02-25T05:36:47.789Z,98758.63
2019-02-25T05:39:19.278Z,98759.01
2019-02-25T05:41:49.987Z,98758.27
2019-02-25T05:44:21.705Z,98764.36
2019-02-25T05:46:52.721Z,98758.80
2019-02-25T05:49:24.379Z,98762.94
2019-02-25T05:51:55.395Z,98772.88
2019-02-25T05:54:27.031Z,98767.13
2019-02-25T05:56:57.773Z,98774.40
2019-02-25T05:59:29.430Z,98770.33
2019-02-25T06:02:00.414Z,98771.13
2019-02-25T06:04:31.275Z,98775.50
2019-02-25T06:07:02.639Z,98774.25
2019-02-25T06:09:34.039Z,98775.67
2019-02-25T06:12:05.477Z,98782.38
2019-02-25T06:14:37.145Z,98780.30
2019-02-25T06:17:46.339Z,98777.51
2019-02-25T06:20:16.955Z,98783.04
2019-02-25T06:22:49.413Z,98786.52
2019-02-25T06:25:20.035Z,98789.63
2019-02-25T06:27:51.426Z,98790.81
2019-02-25T06:30:25.725Z,98792.15
2019-02-25T06:33:09.998Z,98796.06
2019-02-25T06:35:41.429Z,98798.25
2019-02-25T06:38:12.485Z,98794.99
2019-02-25T06:40:57.331Z,98797.55
2019-02-25T06:43:35.047Z,98794.55
2019-02-25T06:46:09.055Z,98799.35
2019-02-25T06:48:40.696Z,98801.17
2019-02-25T06:51:11.879Z,98789.87
2019-02-25T06:53:57.701Z,98794.27
2019-02-25T06:56:29.167Z,98790.16
2019-02-25T06:59:00.466Z,98780.33
2019-02-25T07:01:31.444Z,98777.27
2019-02-25T07:04:20.673Z,98787.53
2019-02-25T07:07:13.444Z,98789.50
2019-02-25T07:10:12.630Z,98786.47
2019-02-25T07:13:00.002Z,98785.04
2019-02-25T07:15:52.473Z,98787.93
2019-02-25T07:18:44.723Z,98783.73
2019-02-25T07:21:29.922Z,98790.07
2019-02-25T07:24:18.196Z,98788.45
2019-02-25T07:27:18.117Z,98791.22
2019-02-25T07:30:17.219Z,98785.14
2019-02-25T07:33:13.033Z,98787.69
2019-02-25T07:36:06.699Z,98790.98
2019-02-25T07:38:57.016Z,98793.61
2019-02-25T07:42:03.253Z,98796.31
2019-02-25T07:44:53.789Z,98796.83
2019-02-25T07:47:43.461Z,98795.51
2019-02-25T07:50:33.857Z,98803.13
2019-02-25T07:53:18.601Z,98805.95
2019-02-25T07:56:07.783Z,98804.13
2019-02-25T07:58:49.165Z,98804.78
2019-02-25T08:01:29.212Z,98804.66
2019-02-25T08:04:24.634Z,98802.37
2019-02-25T08:07:17.415Z,98800.78
2019-02-25T08:09:59.510Z,98804.31
2019-02-25T08:12:38.400Z,98805.73
2019-02-25T08:15:15.896Z,98812.02
2019-02-25T08:18:03.752Z,98808.03
2019-02-25T08:20:57.146Z,98806.52
2019-02-25T08:23:58.963Z,98806.09
2019-02-25T08:26:47.537Z,98803.34
2019-02-25T08:29:29.737Z,98802.61
2019-02-25T08:32:18.766Z,98808.39
2019-02-25T08:35:11.291Z,98802.14
2019-02-25T08:38:15.747Z,98808.08
2019-02-25T08:41:16.965Z,98804.41
2019-02-25T08:44:18.599Z,98808.84
2019-02-25T08:47:09.620Z,98811.59
2019-02-25T08:49:45.309Z,98809.21
2019-02-25T08:52:16.359Z,98812.87
2019-02-25T08:54:47.410Z,98815.55
2019-02-25T08:57:18.831Z,98818.98
2019-02-25T08:59:50.304Z,98819.09
2019-02-25T09:02:21.975Z,98824.14
2019-02-25T09:04:53.564Z,98823.75
2019-02-25T09:07:24.842Z,98820.11
2019-02-25T09:09:56.512Z,98826.72
2019-02-25T09:12:28.218Z,98829.20
2019-02-25T09:14:59.238Z,98825.33
2019-02-25T09:17:30.259Z,98825.23
2019-02-25T09:20:01.545Z,98821.70
2019-02-25T09:22:33.982Z,98816.22
2019-02-25T09:25:04.881Z,98817.25
2019-02-25T09:27:35.952Z,98813.53
2019-02-25T09:30:10.241Z,98812.27
2019-02-25T09:32:41.047Z,98807.50
2019-02-25T09:35:12.449Z,98805.93
2019-02-25T09:37:43.608Z,98812.75
2019-02-25T09:40:16.378Z,98808.27
2019-02-25T09:42:47.413Z,98799.91
2019-02-25T09:45:17.752Z,98801.27
2019-02-25T09:47:49.320Z,98803.02
2019-02-25T09:50:21.165Z,98810.48
2019-02-25T09:52:51.848Z,98803.66
2019-02-25T09:55:23.645Z,98810.47
2019-02-25T09:57:55.193Z,98809.63
2019-02-25T10:00:26.230Z,98801.71
2019-02-25T10:02:57.565Z,98805.34
2019-02-25T10:05:29.098Z,98804.00
2019-02-25T10:08:00.819Z,98807.91
2019-02-25T10:10:51.603Z,98806.67
2019-02-25T10:13:23.046Z,98808.38
2019-02-25T10:15:54.782Z,98805.60
2019-02-25T10:18:25.678Z,98809.95
2019-02-25T10:20:57.078Z,98800.88
2019-02-25T10:23:28.407Z,98800.23
2019-02-25T10:25:59.897Z,98804.55
2019-02-25T10:28:31.021Z,98797.39
2019-02-25T10:31:02.090Z,98794.22
2019-02-25T10:33:33.424Z,98804.36
2019-02-25T10:36:03.726Z,98801.81
2019-02-25T10:38:37.459Z,98803.08
2019-02-25T10:41:08.583Z,98808.67
2019-02-25T10:43:39.834Z,98807.34
2019-02-25T10:46:13.355Z,98796.20
2019-02-25T10:49:56.629Z,98800.27
2019-02-25T10:52:28.215Z,98791.81
2019-02-25T10:55:00.268Z,98789.59
2019-02-25T10:57:32.122Z,98787.08
2019-02-25T11:00:04.963Z,98789.23
2019-02-25T11:02:43.977Z,98793.45
2019-02-25T11:05:09.919Z,98792.09
2019-02-25T11:07:42.118Z,98786.44
2019-02-25T11:10:40.647Z,98784.79
2019-02-25T11:13:12.186Z,98777.55
2019-02-25T11:15:44.563Z,98773.77
2019-02-25T11:18:19.165Z,98772.93
2019-02-25T11:20:50.060Z,98769.70
2019-02-25T11:23:21.643Z,98765.83
2019-02-25T11:25:55.777Z,98764.14
2019-02-25T11:28:27.387Z,98764.88
2019-02-25T11:30:58.872Z,98764.29
2019-02-25T11:33:32.583Z,98758.47
2019-02-25T11:36:03.620Z,98753.70
2019-02-25T11:38:43.078Z,98755.99
2019-02-25T11:41:14.803Z,98752.91
2019-02-25T11:43:48.224Z,98756.16
2019-02-25T11:46:19.415Z,98751.72
2019-02-25T11:48:51.101Z,98747.94
2019-02-25T11:51:22.844Z,98737.45
2019-02-25T11:53:54.608Z,98735.70
2019-02-25T11:56:25.796Z,98735.05
2019-02-25T11:58:57.444Z,98731.17
2019-02-25T12:01:28.751Z,98726.02
2019-02-25T12:04:00.032Z,98726.44
2019-02-25T12:06:31.692Z,98723.99
2019-02-25T12:09:03.485Z,98718.62
2019-02-25T12:11:34.488Z,98714.91
2019-02-25T12:14:05.265Z,98711.02
2019-02-25T12:16:36.652Z,98708.73
2019-02-25T12:19:17.583Z,98703.27
2019-02-25T12:21:42.319Z,98698.86
2019-02-25T12:24:13.793Z,98702.12
2019-02-25T12:26:45.147Z,98706.25
2019-02-25T12:29:16.578Z,98699.50
2019-02-25T12:31:47.636Z,98703.15
2019-02-25T12:34:18.737Z,98699.37
2019-02-25T12:37:27.542Z,98690.81
2019-02-25T12:39:59.580Z,98691.84
2019-02-25T12:42:31.219Z,98686.84
2019-02-25T12:45:02.507Z,98682.66
2019-02-25T12:47:34.498Z,98671.66
2019-02-25T12:50:06.327Z,98672.64
2019-02-25T12:52:37.974Z,98669.27
2019-02-25T12:55:12.443Z,98668.16
2019-02-25T12:57:43.921Z,98658.06
2019-02-25T13:00:15.322Z,98661.30
2019-02-25T13:02:59.917Z,98655.93
2019-02-25T13:05:32.403Z,98657.13
2019-02-25T13:08:03.843Z,98650.74
2019-02-25T13:10:34.992Z,98648.42
2019-02-25T13:13:06.331Z,98646.78
2019-02-25T13:15:37.296Z,98646.78
2019-02-25T13:18:08.615Z,98652.11
2019-02-25T13:20:39.652Z,98648.44
2019-02-25T13:23:11.109Z,98651.64
2019-02-25T13:25:42.846Z,98648.58
2019-02-25T13:28:15.357Z,98645.64
2019-02-25T13:30:46.337Z,98648.31
2019-02-25T13:33:25.934Z,98646.08
2019-02-25T13:35:57.569Z,98647.60
2019-02-25T13:38:29.338Z,98636.00
2019-02-25T13:41:01.132Z,98631.19
2019-02-25T13:43:33.176Z,98625.17
2019-02-25T13:46:04.206Z,98609.53
2019-02-25T13:48:35.263Z,98613.73
2019-02-25T13:51:06.593Z,98612.41
2019-02-25T13:53:37.730Z,98616.77
2019-02-25T13:56:09.585Z,98613.89
2019-02-25T13:58:41.582Z,98608.95
2019-02-25T14:01:15.201Z,98603.72
2019-02-25T14:03:46.966Z,98606.23
2019-02-25T14:06:17.608Z,98613.97
2019-02-25T14:08:49.256Z,98609.92
2019-02-25T14:11:20.845Z,98610.11
2019-02-25T14:13:52.490Z,98607.51
2019-02-25T14:16:24.411Z,98601.89
2019-02-25T14:18:55.549Z,98598.27
2019-02-25T14:21:27.237Z,98596.20
2019-02-25T14:23:59.836Z,98593.46
2019-02-25T14:26:31.368Z,98589.69
2019-02-25T14:29:02.768Z,98591.83
2019-02-25T14:31:34.200Z,98590.63
2019-02-25T14:34:04.868Z,98586.89
2019-02-25T14:36:36.441Z,98588.08
2019-02-25T14:39:24.897Z,98580.24
2019-02-25T14:41:54.833Z,98590.98
2019-02-25T14:44:29.804Z,98591.88
2019-02-25T14:47:02.604Z,98593.47
2019-02-25T14:49:35.357Z,98588.96
2019-02-25T14:52:06.138Z,98585.56
2019-02-25T14:54:37.917Z,98590.54
2019-02-25T14:57:08.987Z,98591.28
2019-02-25T14:59:40.923Z,98592.73
2019-02-25T15:02:12.275Z,98585.83
2019-02-25T15:04:44.264Z,98587.21
2019-02-25T15:07:15.705Z,98585.97
2019-02-25T15:09:48.269Z,98586.95
2019-02-25T15:13:14.726Z,98590.51
2019-02-25T15:15:47.575Z,98590.60
2019-02-25T15:18:20.043Z,98592.03
2019-02-25T15:20:51.917Z,98592.06
2019-02-25T15:23:25.965Z,98599.77
2019-02-25T15:26:05.166Z,98598.11
2019-02-25T15:28:38.596Z,98597.75
2019-02-25T15:31:12.059Z,98595.80
2019-02-25T15:33:52.868Z,98591.32
2019-02-25T15:36:30.474Z,98587.61
2019-02-25T15:39:07.871Z,98588.69
2019-02-25T15:41:40.555Z,98589.09
2019-02-25T15:44:21.970Z,98593.67
2019-02-25T15:46:52.862Z,98581.59
2019-02-25T15:49:25.647Z,98579.76
2019-02-25T15:51:57.298Z,98580.76
2019-02-25T15:54:33.282Z,98577.59
2019-02-25T15:57:41.072Z,98577.54
2019-02-25T16:00:16.002Z,98564.48
2019-02-25T16:02:55.446Z,98562.10
2019-02-25T16:05:31.617Z,98567.24
2019-02-25T16:08:08.546Z,98563.81
2019-02-25T16:11:02.151Z,98557.79
2019-02-25T16:13:33.661Z,98550.69
2019-02-25T16:16:10.786Z,98555.62
2019-02-25T16:18:48.463Z,98556.34
2019-02-25T16:21:27.775Z,98558.23
2019-02-25T16:24:02.035Z,98557.60
2019-02-25T16:26:36.053Z,98561.95
2019-02-25T16:29:09.108Z,98560.58
2019-02-25T16:31:44.988Z,98562.46
2019-02-25T16:34:18.865Z,98555.25
2019-02-25T16:36:51.950Z,98552.92
2019-02-25T16:39:32.928Z,98555.61
2019-02-25T16:42:04.881Z,98559.66
2019-02-25T16:44:36.377Z,98557.38
2019-02-25T16:47:07.870Z,98565.32
2019-02-25T16:49:40.711Z,98573.63
2019-02-25T16:52:40.528Z,98574.27
2019-02-25T16:55:28.104Z,98578.72
2019-02-25T16:58:03.475Z,98576.17
2019-02-25T17:00:35.439Z,98579.91
2019-02-25T17:03:08.211Z,98588.52
2019-02-25T17:05:40.355Z,98586.52
2019-02-25T17:08:15.070Z,98581.16
2019-02-25T17:10:45.817Z,98587.17
2019-02-25T17:13:17.277Z,98598.27
2019-02-25T17:15:48.957Z,98598.72
2019-02-25T17:18:21.349Z,98598.36
2019-02-25T17:20:52.802Z,98593.93
2019-02-25T17:23:25.138Z,98605.05
2019-02-25T17:25:58.010Z,98604.38
2019-02-25T17:28:29.687Z,98608.11
2019-02-25T17:31:00.770Z,98607.55
2019-02-25T17:33:32.615Z,98616.17
2019-02-25T17:36:06.242Z,98617.17
2019-02-25T17:38:38.548Z,98614.47
2019-02-25T17:41:11.249Z,98612.88
2019-02-25T17:43:43.531Z,98623.03
2019-02-25T17:46:14.802Z,98621.36
2019-02-25T17:48:46.556Z,98615.73
2019-02-25T17:51:19.101Z,98623.42
2019-02-25T17:53:52.712Z,98620.70
2019-02-25T17:56:26.982Z,98621.48
2019-02-25T17:59:01.126Z,98622.30
2019-02-25T18:01:32.754Z,98620.66
2019-02-25T18:04:17.192Z,98632.34
2019-02-25T18:06:50.505Z,98637.03
2019-02-25T18:09:22.687Z,98635.25
2019-02-25T18:11:55.213Z,98642.00
2019-02-25T18:14:26.237Z,98642.47
2019-02-25T18:16:57.926Z,98646.56
2019-02-25T18:19:29.447Z,98653.86
2019-02-25T18:22:00.194Z,98647.98
2019-02-25T18:24:32.558Z,98646.30
2019-02-25T18:27:06.932Z,98653.13
2019-02-25T18:29:38.585Z,98648.89
2019-02-25T18:32:11.851Z,98642.66
2019-02-25T18:34:43.758Z,98648.30
2019-02-25T18:37:18.059Z,98649.44
2019-02-25T18:39:52.241Z,98648.12
2019-02-25T18:42:24.529Z,98646.05
2019-02-25T18:44:55.693Z,98641.89
2019-02-25T18:47:27.315Z,98643.16
2019-02-25T18:50:00.954Z,98645.28
2019-02-25T18:52:34.195Z,98640.03
2019-02-25T18:55:06.732Z,98650.61
2019-02-25T18:57:39.053Z,98655.86
2019-02-25T19:00:14.220Z,98648.67
2019-02-25T19:02:45.183Z,98651.00
2019-02-25T19:07:47.277Z,98664.83
2019-02-25T19:10:22.480Z,98661.64
2019-02-25T19:12:54.096Z,98665.78
2019-02-25T19:15:27.840Z,98674.42
2019-02-25T19:17:59.506Z,98672.90
2019-02-25T19:20:34.805Z,98681.55
2019-02-25T19:23:10.173Z,98674.69
2019-02-25T19:25:46.011Z,98679.03
2019-02-25T19:28:19.704Z,98684.31
2019-02-25T19:31:08.164Z,98691.36
2019-02-25T19:33:44.088Z,98686.00
2019-02-25T19:36:25.647Z,98685.41
2019-02-25T19:39:14.410Z,98678.83
2019-02-25T19:41:47.157Z,98682.67
2019-02-25T19:44:21.099Z,98687.86
2019-02-25T19:47:03.162Z,98683.93
2019-02-25T19:49:36.616Z,98682.39
2019-02-25T19:52:07.985Z,98683.33
2019-02-25T19:54:40.840Z,98691.69
2019-02-25T19:57:28.414Z,98693.50
2019-02-25T20:00:02.921Z,98685.97
2019-02-25T20:02:40.150Z,98685.64
2019-02-25T20:05:14.235Z,98689.36
2019-02-25T20:07:46.928Z,98696.77
2019-02-25T20:10:24.278Z,98688.92
2019-02-25T20:12:56.406Z,98691.87
2019-02-25T20:15:39.597Z,98691.55
2019-02-25T20:18:16.191Z,98688.55
2019-02-25T20:20:49.765Z,98690.00
2019-02-25T20:23:22.827Z,98687.83
2019-02-25T20:26:11.296Z,98679.95
2019-02-25T20:28:45.229Z,98677.84
2019-02-25T20:31:16.798Z,98679.74
2019-02-25T20:33:47.584Z,98690.77
2019-02-25T20:36:22.087Z,98693.78
2019-02-25T20:38:54.210Z,98697.55
2019-02-25T20:41:28.835Z,98687.66
2019-02-25T20:44:05.028Z,98682.58
2019-02-25T20:46:38.787Z,98693.15
2019-02-25T20:49:14.189Z,98691.23
2019-02-25T20:51:57.974Z,98696.08
2019-02-25T20:54:29.505Z,98688.43
2019-02-25T20:57:00.837Z,98693.61
2019-02-25T20:59:33.137Z,98694.70
2019-02-25T21:02:13.671Z,98695.13
2019-02-25T21:04:43.903Z,98691.89
2019-02-25T21:07:15.045Z,98688.98
2019-02-25T21:09:46.396Z,98692.45
2019-02-25T21:12:20.015Z,98693.05
2019-02-25T21:15:03.017Z,98702.48
2019-02-25T21:17:37.849Z,98692.11
2019-02-25T21:20:12.694Z,98697.11
2019-02-25T21:22:52.465Z,98704.62
2019-02-25T21:25:26.429Z,98705.24
2019-02-25T21:27:59.278Z,98698.33
2019-02-25T21:30:28.591Z,98699.67
2019-02-25T21:33:01.981Z,98703.58
2019-02-25T21:35:36.694Z,98714.80
2019-02-25T21:38:05.642Z,98706.88
2019-02-25T21:40:37.339Z,98716.44
2019-02-25T21:43:12.108Z,98715.31
2019-02-25T21:45:46.057Z,98717.70
2019-02-25T21:48:25.128Z,98715.53
2019-02-25T21:51:00.098Z,98719.13
2019-02-25T21:53:29.437Z,98718.34
2019-02-25T21:56:10.972Z,98716.38
2019-02-25T21:58:48.765Z,98707.02
2019-02-25T22:01:21.158Z,98711.81
2019-02-25T22:03:56.176Z,98706.37
2019-02-25T22:06:31.596Z,98703.19
2019-02-25T22:09:09.449Z,98701.78
2019-02-25T22:11:43.521Z,98708.11
2019-02-25T22:14:16.310Z,98698.57
2019-02-25T22:16:50.430Z,98698.26
2019-02-25T22:19:21.270Z,98696.50
2019-02-25T22:21:55.671Z,98690.81
2019-02-25T22:24:29.061Z,98694.22
2019-02-25T22:27:00.056Z,98694.22
2019-02-25T22:29:31.610Z,98702.29
2019-02-25T22:32:19.924Z,98694.19
2019-02-25T22:34:50.910Z,98705.85
2019-02-25T22:37:24.423Z,98699.99
2019-02-25T22:39:55.750Z,98707.62
2019-02-25T22:42:27.432Z,98712.64
2019-02-25T22:44:59.641Z,98717.16
2019-02-25T22:47:30.961Z,98714.59
2019-02-25T22:50:04.155Z,98715.70
2019-02-25T22:52:38.102Z,98718.44
2019-02-25T22:55:10.527Z,98721.52
2019-02-25T22:57:53.863Z,98721.52
2019-02-25T23:00:58.335Z,98723.31
2019-02-25T23:03:27.969Z,98728.48
2019-02-25T23:06:01.078Z,98721.05
2019-02-25T23:08:32.354Z,98722.80
2019-02-25T23:11:04.073Z,98723.92
2019-02-25T23:13:35.298Z,98724.09
2019-02-25T23:16:09.683Z,98713.27
2019-02-25T23:18:42.040Z,98715.84
2019-02-25T23:21:26.474Z,98715.50
2019-02-25T23:24:00.485Z,98719.69
2019-02-25T23:26:32.505Z,98724.52
2019-02-25T23:29:03.515Z,98723.23
2019-02-25T23:31:52.950Z,98724.51
2019-02-25T23:34:24.866Z,98722.23
2019-02-25T23:36:56.292Z,98716.56
2019-02-25T23:39:27.366Z,98718.16
2019-02-25T23:42:00.635Z,98720.28
2019-02-25T23:44:30.695Z,98716.58
2019-02-25T23:47:02.025Z,98722.86
2019-02-25T23:49:36.439Z,98722.55
2019-02-25T23:52:07.772Z,98716.08
2019-02-25T23:54:39.085Z,98715.59
2019-02-25T23:57:10.536Z,98720.41
2019-02-25T23:59:44.140Z,98719.90
